createdAt,value
2023-04-14T00:03:00.483Z,81
2023-04-14T00:06:25.665Z,81
2023-04-14T00:09:50.970Z,81
2023-04-14T00:13:16.314Z,81
2023-04-14T00:16:41.662Z,81
2023-04-14T00:20:06.956Z,81
2023-04-14T00:23:32.330Z,81
2023-04-14T00:26:57.636Z,81
2023-04-14T00:30:22.958Z,81
2023-04-14T00:33:48.279Z,81
2023-04-14T00:37:13.622Z,81
2023-04-14T00:40:38.989Z,81
2023-04-14T00:44:04.365Z,81
2023-04-14T00:47:29.712Z,81
2023-04-14T00:50:55.039Z,81
2023-04-14T00:54:20.341Z,81
2023-04-14T00:57:45.729Z,81
2023-04-14T01:01:11.047Z,81
2023-04-14T01:04:49.538Z,81
2023-04-14T01:08:01.655Z,81
2023-04-14T01:11:26.960Z,81
2023-04-14T01:14:52.291Z,81
2023-04-14T01:18:17.595Z,82
2023-04-14T01:21:42.943Z,82
2023-04-14T01:25:08.214Z,83
2023-04-14T01:28:33.529Z,83
2023-04-14T01:31:58.920Z,83
2023-04-14T01:35:24.161Z,83
2023-04-14T01:38:49.465Z,83
2023-04-14T01:42:14.749Z,83
2023-04-14T01:45:40.071Z,83
2023-04-14T01:49:05.377Z,83
2023-04-14T01:52:30.670Z,83
2023-04-14T01:55:56.023Z,84
2023-04-14T01:59:21.315Z,84
2023-04-14T02:02:46.801Z,84
2023-04-14T02:06:11.922Z,84
2023-04-14T02:09:37.281Z,85
2023-04-14T02:13:02.732Z,85
2023-04-14T02:16:27.976Z,85
2023-04-14T02:19:53.224Z,84
2023-04-14T02:23:18.545Z,84
2023-04-14T02:26:43.816Z,84
2023-04-14T02:30:09.141Z,84
2023-04-14T02:33:34.405Z,83
2023-04-14T02:36:59.658Z,84
2023-04-14T02:40:24.944Z,84
2023-04-14T02:43:50.237Z,84
2023-04-14T02:47:15.596Z,84
2023-04-14T02:50:40.832Z,84
2023-04-14T02:54:06.098Z,84
2023-04-14T02:57:31.385Z,84
2023-04-14T03:00:56.646Z,84
2023-04-14T03:04:22.007Z,84
2023-04-14T03:07:47.302Z,84
2023-04-14T03:11:12.601Z,83
2023-04-14T03:14:37.896Z,84
2023-04-14T03:18:03.250Z,84
2023-04-14T03:21:28.543Z,84
2023-04-14T03:24:53.786Z,84
2023-04-14T03:28:19.075Z,84
2023-04-14T03:31:44.425Z,84
2023-04-14T03:35:09.629Z,84
2023-04-14T03:38:34.937Z,84
2023-04-14T03:42:00.176Z,84
2023-04-14T03:45:25.445Z,84
2023-04-14T03:48:50.726Z,84
2023-04-14T03:52:16.018Z,84
2023-04-14T03:55:41.317Z,84
2023-04-14T03:59:07.387Z,84
2023-04-14T04:02:31.873Z,84
2023-04-14T04:05:57.103Z,84
2023-04-14T04:09:22.390Z,84
2023-04-14T04:12:47.705Z,84
2023-04-14T04:16:13.028Z,84
2023-04-14T04:19:38.262Z,84
2023-04-14T04:23:03.564Z,84
2023-04-14T04:26:28.858Z,84
2023-04-14T04:29:54.199Z,84
2023-04-14T04:33:19.475Z,84
2023-04-14T04:36:44.845Z,85
2023-04-14T04:40:10.141Z,84
2023-04-14T04:43:35.461Z,84
2023-04-14T04:47:01.027Z,84
2023-04-14T04:50:26.258Z,84
2023-04-14T04:53:51.577Z,84
2023-04-14T04:57:16.857Z,84
2023-04-14T05:00:42.143Z,84
2023-04-14T05:04:07.486Z,84
2023-04-14T05:07:32.678Z,84
2023-04-14T05:10:57.915Z,84
2023-04-14T05:14:23.118Z,84
2023-04-14T05:17:48.350Z,84
2023-04-14T05:21:13.617Z,84
2023-04-14T05:24:38.787Z,84
2023-04-14T05:28:04.001Z,84
2023-04-14T05:31:29.234Z,84
2023-04-14T05:34:54.422Z,85
2023-04-14T05:38:19.659Z,84
2023-04-14T05:41:44.883Z,84
2023-04-14T05:45:10.108Z,84
2023-04-14T05:48:35.299Z,84
2023-04-14T05:52:00.583Z,84
2023-04-14T05:55:25.851Z,84
2023-04-14T05:58:51.062Z,84
2023-04-14T06:02:16.362Z,84
2023-04-14T06:05:41.500Z,84
2023-04-14T06:09:06.816Z,85
2023-04-14T06:12:32.109Z,85
2023-04-14T06:15:57.411Z,85
2023-04-14T06:19:22.710Z,85
2023-04-14T06:22:48.035Z,84
2023-04-14T06:26:13.350Z,84
2023-04-14T06:29:38.667Z,85
2023-04-14T06:33:04.068Z,84
2023-04-14T06:36:29.339Z,85
2023-04-14T06:39:54.676Z,84
2023-04-14T06:43:20.024Z,85
2023-04-14T06:46:45.432Z,85
2023-04-14T06:50:10.750Z,84
2023-04-14T06:53:36.097Z,85
2023-04-14T06:57:01.422Z,85
2023-04-14T07:00:26.774Z,85
2023-04-14T07:03:52.144Z,85
2023-04-14T07:07:17.418Z,85
2023-04-14T07:10:42.780Z,84
2023-04-14T07:14:08.110Z,84
2023-04-14T07:17:33.428Z,84
2023-04-14T07:20:58.782Z,84
2023-04-14T07:24:24.086Z,84
2023-04-14T07:28:00.201Z,83
2023-04-14T07:31:14.762Z,84
2023-04-14T07:34:40.118Z,83
2023-04-14T07:38:05.550Z,84
2023-04-14T07:41:30.873Z,83
2023-04-14T07:44:56.228Z,83
2023-04-14T07:48:21.816Z,84
2023-04-14T07:51:46.967Z,82
2023-04-14T07:55:12.340Z,82
2023-04-14T07:58:37.622Z,82
2023-04-14T08:02:02.988Z,83
2023-04-14T08:05:28.295Z,84
2023-04-14T08:08:53.605Z,84
2023-04-14T08:12:18.928Z,84
2023-04-14T08:15:44.266Z,84
2023-04-14T08:19:09.465Z,85
2023-04-14T08:22:34.704Z,85
2023-04-14T08:25:59.957Z,86
2023-04-14T08:29:25.325Z,87
2023-04-14T08:32:50.652Z,86
2023-04-14T08:36:15.821Z,86
2023-04-14T08:39:41.107Z,85
2023-04-14T08:43:06.381Z,85
2023-04-14T08:46:31.855Z,85
2023-04-14T08:49:57.077Z,85
2023-04-14T08:53:22.339Z,85
2023-04-14T08:56:47.675Z,86
2023-04-14T09:00:13.093Z,86
2023-04-14T09:03:38.503Z,85
2023-04-14T09:07:03.642Z,85
2023-04-14T09:10:28.945Z,85
2023-04-14T09:13:54.282Z,85
2023-04-14T09:17:19.600Z,86
2023-04-14T09:20:45.200Z,84
2023-04-14T09:24:12.089Z,84
2023-04-14T09:27:35.774Z,84
2023-04-14T09:31:01.207Z,84
2023-04-14T09:34:26.614Z,84
2023-04-14T09:37:52.040Z,83
2023-04-14T09:41:17.348Z,82
2023-04-14T09:44:42.884Z,82
2023-04-14T09:48:08.284Z,81
2023-04-14T09:51:33.704Z,81
2023-04-14T09:54:59.139Z,80
2023-04-14T09:58:26.921Z,81
2023-04-14T10:01:49.958Z,80
2023-04-14T10:05:15.287Z,78
2023-04-14T10:08:40.640Z,78
2023-04-14T10:12:06.720Z,79
2023-04-14T10:15:31.303Z,80
2023-04-14T10:18:56.677Z,79
2023-04-14T10:22:21.975Z,79
2023-04-14T10:25:47.288Z,78
2023-04-14T10:29:12.632Z,78
2023-04-14T10:32:37.937Z,79
2023-04-14T10:36:03.281Z,80
2023-04-14T10:39:28.646Z,81
2023-04-14T10:42:54.088Z,81
2023-04-14T10:46:19.455Z,81
2023-04-14T10:49:44.692Z,80
2023-04-14T10:53:10.002Z,82
2023-04-14T10:56:35.257Z,79
2023-04-14T11:00:00.604Z,81
2023-04-14T11:03:27.476Z,84
2023-04-14T11:06:51.202Z,86
2023-04-14T11:10:16.545Z,86
2023-04-14T11:13:41.847Z,87
2023-04-14T11:17:07.137Z,87
2023-04-14T11:20:32.610Z,86
2023-04-14T11:24:00.858Z,87
2023-04-14T11:27:28.329Z,87
2023-04-14T11:30:53.627Z,86
2023-04-14T11:34:19.006Z,86
2023-04-14T11:37:44.277Z,83
2023-04-14T11:41:09.529Z,83
2023-04-14T11:44:35.370Z,85
2023-04-14T11:48:00.850Z,84
2023-04-14T11:51:26.141Z,82
2023-04-14T11:54:51.584Z,85
2023-04-14T11:58:16.762Z,84
2023-04-14T12:01:42.008Z,82
2023-04-14T12:05:07.559Z,81
2023-04-14T12:08:32.538Z,81
2023-04-14T12:11:58.012Z,84
2023-04-14T12:15:23.203Z,84
2023-04-14T12:18:48.481Z,81
2023-04-14T12:22:13.711Z,80
2023-04-14T12:25:38.966Z,80
2023-04-14T12:29:04.484Z,81
2023-04-14T12:32:29.681Z,79
2023-04-14T12:35:54.893Z,82
2023-04-14T12:39:20.150Z,84
2023-04-14T12:42:45.535Z,85
2023-04-14T12:46:10.936Z,85
2023-04-14T12:49:36.353Z,85
2023-04-14T12:53:01.700Z,86
2023-04-14T12:56:27.127Z,84
2023-04-14T12:59:52.482Z,85
2023-04-14T13:03:18.091Z,81
2023-04-14T13:06:43.495Z,81
2023-04-14T13:10:08.960Z,82
2023-04-14T13:13:34.432Z,82
2023-04-14T13:16:59.933Z,79
2023-04-14T13:20:25.491Z,79
2023-04-14T13:23:50.964Z,77
2023-04-14T13:27:16.447Z,76
2023-04-14T13:30:42.057Z,76
2023-04-14T13:34:07.808Z,77
2023-04-14T13:37:33.401Z,77
2023-04-14T13:40:58.992Z,78
2023-04-14T13:44:24.549Z,78
2023-04-14T13:47:50.189Z,80
2023-04-14T13:51:15.756Z,82
2023-04-14T13:54:41.379Z,83
2023-04-14T13:58:06.861Z,83
2023-04-14T14:01:32.234Z,83
2023-04-14T14:04:57.500Z,84
2023-04-14T14:08:22.782Z,83
2023-04-14T14:11:48.083Z,83
2023-04-14T14:15:13.410Z,84
2023-04-14T14:18:38.708Z,84
2023-04-14T14:22:04.020Z,84
2023-04-14T14:25:29.345Z,83
2023-04-14T14:28:54.665Z,84
2023-04-14T14:32:19.999Z,82
2023-04-14T14:35:45.385Z,82
2023-04-14T14:39:10.691Z,83
2023-04-14T14:42:35.956Z,82
2023-04-14T14:46:01.597Z,81
2023-04-14T14:49:26.808Z,80
2023-04-14T14:52:52.082Z,79
2023-04-14T14:56:17.427Z,77
2023-04-14T14:59:42.740Z,78
2023-04-14T15:03:08.199Z,79
2023-04-14T15:06:33.397Z,78
2023-04-14T15:41:09.539Z,77
2023-04-14T15:44:34.888Z,75
2023-04-14T15:48:00.235Z,75
2023-04-14T15:51:25.669Z,74
2023-04-14T15:54:51.043Z,76
2023-04-14T15:58:16.484Z,77
2023-04-14T16:01:41.897Z,76
2023-04-14T16:05:07.319Z,76
2023-04-14T16:08:32.671Z,76
2023-04-14T16:11:58.044Z,76
2023-04-14T16:15:23.455Z,76
2023-04-14T16:18:48.833Z,76
2023-04-14T16:22:14.523Z,76
2023-04-14T16:25:40.182Z,77
2023-04-14T16:29:05.603Z,78
2023-04-14T16:32:31.058Z,79
2023-04-14T16:35:56.351Z,81
2023-04-14T16:39:21.723Z,84
2023-04-14T16:42:47.289Z,85
2023-04-14T16:46:12.989Z,86
2023-04-14T16:49:38.651Z,87
2023-04-14T16:53:04.352Z,87
2023-04-14T16:56:30.688Z,87
2023-04-14T16:59:57.917Z,87
2023-04-14T17:03:26.716Z,88
2023-04-14T17:06:53.300Z,88
2023-04-14T17:10:20.184Z,86
2023-04-14T17:13:46.688Z,85
2023-04-14T17:17:13.462Z,86
2023-04-14T17:20:42.160Z,85
2023-04-14T17:24:09.964Z,85
2023-04-14T17:27:36.568Z,85
2023-04-14T17:31:02.312Z,84
2023-04-14T17:34:27.999Z,84
2023-04-14T17:37:53.688Z,83
2023-04-14T17:41:19.473Z,83
2023-04-14T17:44:45.082Z,82
2023-04-14T17:48:11.503Z,82
2023-04-14T17:51:37.462Z,82
2023-04-14T17:55:03.300Z,82
2023-04-14T17:58:29.059Z,82
2023-04-14T18:01:54.897Z,82
2023-04-14T18:05:20.589Z,82
2023-04-14T18:08:46.301Z,82
2023-04-14T18:12:12.005Z,82
2023-04-14T18:15:37.804Z,82
2023-04-14T18:19:03.512Z,82
2023-04-14T18:22:29.265Z,81
2023-04-14T18:29:20.650Z,82
2023-04-14T18:32:46.388Z,82
2023-04-14T18:36:12.007Z,82
2023-04-14T18:39:37.608Z,82
2023-04-14T18:43:03.201Z,82
2023-04-14T18:46:28.761Z,82
2023-04-14T18:49:54.074Z,82
2023-04-14T18:53:19.407Z,82
2023-04-14T18:56:44.755Z,82
2023-04-14T19:00:10.106Z,82
2023-04-14T19:03:35.494Z,82
2023-04-14T19:07:00.799Z,82
2023-04-14T19:10:26.134Z,82
2023-04-14T19:13:51.511Z,82
2023-04-14T19:17:16.873Z,82
2023-04-14T19:20:42.232Z,82
2023-04-14T19:24:07.565Z,83
2023-04-14T19:27:32.890Z,83
2023-04-14T19:30:58.243Z,83
2023-04-14T19:34:23.630Z,84
2023-04-14T19:37:48.961Z,84
2023-04-14T19:41:14.322Z,84
2023-04-14T19:44:39.678Z,84
2023-04-14T19:48:10.036Z,85
2023-04-14T19:51:30.398Z,85
2023-04-14T19:54:55.745Z,85
2023-04-14T19:58:21.562Z,85
2023-04-14T20:01:46.580Z,85
2023-04-14T20:05:11.755Z,85
2023-04-14T20:08:36.965Z,85
2023-04-14T20:12:02.402Z,85
2023-04-14T20:15:27.422Z,85
2023-04-14T20:18:52.618Z,85
2023-04-14T20:22:19.223Z,85
2023-04-14T20:25:44.444Z,85
2023-04-14T20:29:09.675Z,86
2023-04-14T20:32:34.911Z,85
2023-04-14T20:36:00.124Z,85
2023-04-14T20:39:25.314Z,85
2023-04-14T20:42:50.540Z,85
2023-04-14T20:46:15.808Z,85
2023-04-14T20:49:40.987Z,85
2023-04-14T20:53:06.160Z,85
2023-04-14T20:56:31.370Z,85
2023-04-14T20:59:56.614Z,85
2023-04-14T21:03:21.987Z,85
2023-04-14T21:06:47.031Z,85
2023-04-14T21:10:12.980Z,85
2023-04-14T21:14:57.896Z,85
2023-04-14T21:17:03.408Z,85
2023-04-14T21:20:28.590Z,85
2023-04-14T21:23:53.829Z,86
2023-04-14T21:27:19.017Z,86
2023-04-14T21:30:44.220Z,86
2023-04-14T21:34:09.436Z,86
2023-04-14T21:37:34.649Z,86
2023-04-14T21:40:59.924Z,87
2023-04-14T21:44:25.107Z,87
2023-04-14T21:47:50.373Z,87
2023-04-14T21:51:19.022Z,87
2023-04-14T21:54:44.249Z,87
2023-04-14T21:58:09.500Z,87
2023-04-14T22:01:34.691Z,87
2023-04-14T22:04:59.893Z,87
2023-04-14T22:08:25.107Z,88
2023-04-14T22:11:50.320Z,88
2023-04-14T22:15:15.553Z,88
2023-04-14T22:18:40.749Z,88
2023-04-14T22:22:05.939Z,88
2023-04-14T22:25:31.150Z,88
2023-04-14T22:28:56.378Z,89
2023-04-14T22:32:21.622Z,89
2023-04-14T22:35:46.802Z,89
2023-04-14T22:39:12.011Z,89
2023-04-14T22:42:37.232Z,89
2023-04-14T22:46:02.532Z,89
2023-04-14T22:49:27.662Z,89
2023-04-14T22:52:52.845Z,89
2023-04-14T22:56:18.037Z,89
2023-04-14T22:59:43.239Z,88
2023-04-14T23:03:08.730Z,88
2023-04-14T23:06:33.943Z,88
2023-04-14T23:09:59.104Z,88
2023-04-14T23:13:24.306Z,88
2023-04-14T23:16:49.528Z,88
2023-04-14T23:20:14.743Z,89
2023-04-14T23:23:39.977Z,89
2023-04-14T23:27:05.155Z,88
2023-04-14T23:30:30.356Z,88
2023-04-14T23:33:55.548Z,88
2023-04-14T23:37:20.767Z,89
2023-04-14T23:40:46.015Z,89
2023-04-14T23:44:11.179Z,89
2023-04-14T23:47:36.399Z,89
2023-04-14T23:51:14.390Z,89
2023-04-14T23:54:26.813Z,89
